createdAt,value
2018-06-16T00:01:34.443Z,9.37
2018-06-16T00:04:03.462Z,9.87
2018-06-16T00:06:32.466Z,9.73
2018-06-16T00:09:01.490Z,9.77
2018-06-16T00:11:30.692Z,8.50
2018-06-16T00:13:59.684Z,9.40
2018-06-16T00:16:28.642Z,8.77
2018-06-16T00:18:57.674Z,8.67
2018-06-16T00:21:26.653Z,8.40
2018-06-16T00:23:55.648Z,7.70
2018-06-16T00:26:24.744Z,8.20
2018-06-16T00:28:53.975Z,8.50
2018-06-16T00:31:22.958Z,9.10
2018-06-16T00:33:51.952Z,9.50
2018-06-16T00:36:20.895Z,9.60
2018-06-16T00:38:49.922Z,9.10
2018-06-16T00:41:19.091Z,9.97
2018-06-16T00:43:48.023Z,10.33
2018-06-16T00:46:17.047Z,9.20
2018-06-16T00:48:45.993Z,10.00
2018-06-16T00:51:15.008Z,9.23
2018-06-16T00:53:43.968Z,9.13
2018-06-16T00:56:12.989Z,9.60
2018-06-16T00:58:42.060Z,8.47
2018-06-16T01:01:11.130Z,11.27
2018-06-16T01:03:40.290Z,9.93
2018-06-16T01:06:09.470Z,10.63
2018-06-16T01:08:38.408Z,9.43
2018-06-16T01:11:07.395Z,9.90
2018-06-16T01:13:36.323Z,9.73
2018-06-16T01:16:05.323Z,10.77
2018-06-16T01:18:34.325Z,9.57
2018-06-16T01:21:03.324Z,10.13
2018-06-16T01:23:32.292Z,10.07
2018-06-16T01:26:01.270Z,9.30
2018-06-16T01:28:30.267Z,9.40
2018-06-16T01:30:59.328Z,10.67
2018-06-16T01:33:28.335Z,10.70
2018-06-16T01:35:57.365Z,9.47
2018-06-16T01:38:26.373Z,10.40
2018-06-16T01:40:55.458Z,10.37
2018-06-16T01:43:24.497Z,9.53
2018-06-16T01:45:53.474Z,9.83
2018-06-16T01:48:22.535Z,9.17
2018-06-16T01:50:51.581Z,11.47
2018-06-16T01:53:20.573Z,10.57
2018-06-16T01:55:49.530Z,9.87
2018-06-16T01:58:18.571Z,9.60
2018-06-16T02:00:47.603Z,10.77
2018-06-16T02:03:16.593Z,11.23
2018-06-16T02:05:45.595Z,11.00
2018-06-16T02:08:14.584Z,11.60
2018-06-16T02:10:43.641Z,11.30
2018-06-16T02:13:12.701Z,10.57
2018-06-16T02:15:41.645Z,11.17
2018-06-16T02:18:10.690Z,11.53
2018-06-16T02:20:39.801Z,11.30
2018-06-16T02:23:08.830Z,10.97
2018-06-16T02:25:37.826Z,10.60
2018-06-16T02:28:06.887Z,10.77
2018-06-16T02:30:36.056Z,12.30
2018-06-16T02:33:05.096Z,10.27
2018-06-16T02:35:34.247Z,11.23
2018-06-16T02:38:03.226Z,12.07
2018-06-16T02:40:32.444Z,12.40
2018-06-16T02:43:01.440Z,11.57
2018-06-16T02:45:30.410Z,11.87
2018-06-16T02:47:59.430Z,10.93
2018-06-16T02:50:28.467Z,9.83
2018-06-16T02:52:57.473Z,11.93
2018-06-16T02:55:26.500Z,10.70
2018-06-16T02:57:55.484Z,10.90
2018-06-16T03:00:24.468Z,11.07
2018-06-16T03:02:53.480Z,10.77
2018-06-16T03:05:22.462Z,12.13
2018-06-16T03:07:51.638Z,11.13
2018-06-16T03:10:20.601Z,11.13
2018-06-16T03:12:49.601Z,11.10
2018-06-16T03:15:18.653Z,10.33
2018-06-16T03:17:47.769Z,12.23
2018-06-16T03:20:16.783Z,11.77
2018-06-16T03:22:45.834Z,11.67
2018-06-16T03:25:15.957Z,11.23
2018-06-16T03:27:44.989Z,12.40
2018-06-16T03:30:15.639Z,11.03
2018-06-16T03:32:45.344Z,12.07
2018-06-16T03:35:14.345Z,11.63
2018-06-16T03:37:43.359Z,12.83
2018-06-16T03:40:12.318Z,12.27
2018-06-16T03:42:41.315Z,11.30
2018-06-16T03:45:10.362Z,11.33
2018-06-16T03:47:39.430Z,10.40
2018-06-16T03:50:08.372Z,11.97
2018-06-16T03:52:37.345Z,12.33
2018-06-16T03:55:06.654Z,13.60
2018-06-16T03:57:35.812Z,10.70
2018-06-16T04:00:05.235Z,12.23
2018-06-16T04:02:34.294Z,9.67
2018-06-16T04:05:03.307Z,11.30
2018-06-16T04:07:32.501Z,10.53
2018-06-16T04:10:01.505Z,11.40
2018-06-16T04:12:30.499Z,11.23
2018-06-16T04:14:59.457Z,11.27
2018-06-16T04:17:28.537Z,11.00
2018-06-16T04:19:57.539Z,11.23
2018-06-16T04:22:26.508Z,11.83
2018-06-16T04:24:55.469Z,11.53
2018-06-16T04:27:24.524Z,11.10
2018-06-16T04:29:53.524Z,11.27
2018-06-16T04:32:22.539Z,11.47
2018-06-16T04:34:51.657Z,11.30
2018-06-16T04:37:20.619Z,11.13
2018-06-16T04:39:49.579Z,11.03
2018-06-16T04:42:18.537Z,10.83
2018-06-16T04:44:47.497Z,11.03
2018-06-16T04:47:16.463Z,12.07
2018-06-16T04:49:45.420Z,12.53
2018-06-16T04:52:14.416Z,11.13
2018-06-16T04:54:43.372Z,15.73
2018-06-16T04:57:12.351Z,11.70
2018-06-16T04:59:41.330Z,11.40
2018-06-16T05:02:10.293Z,11.33
2018-06-16T05:04:39.274Z,11.00
2018-06-16T05:07:08.432Z,11.10
2018-06-16T05:09:37.418Z,11.17
2018-06-16T05:12:06.425Z,12.33
2018-06-16T05:14:35.402Z,11.80
2018-06-16T05:17:04.426Z,12.20
2018-06-16T05:19:33.413Z,13.77
2018-06-16T05:22:02.384Z,11.47
2018-06-16T05:24:31.354Z,12.23
2018-06-16T05:27:00.354Z,12.00
2018-06-16T05:29:29.375Z,11.87
2018-06-16T05:31:58.393Z,12.23
2018-06-16T05:34:27.455Z,12.97
2018-06-16T05:36:56.468Z,13.50
2018-06-16T05:39:25.640Z,11.67
2018-06-16T05:41:54.657Z,11.50
2018-06-16T05:44:23.608Z,11.27
2018-06-16T05:46:52.655Z,12.10
2018-06-16T05:49:21.653Z,11.80
2018-06-16T05:51:50.870Z,11.77
2018-06-16T05:54:19.866Z,11.70
2018-06-16T05:56:48.935Z,11.20
2018-06-16T05:59:17.968Z,11.47
2018-06-16T06:01:46.987Z,12.50
2018-06-16T06:04:16.013Z,10.87
2018-06-16T06:06:45.008Z,11.40
2018-06-16T06:09:14.051Z,11.00
2018-06-16T06:11:43.035Z,14.33
2018-06-16T06:14:12.032Z,12.90
2018-06-16T06:16:41.044Z,14.87
2018-06-16T06:19:10.045Z,10.67
2018-06-16T06:21:39.059Z,10.47
2018-06-16T06:24:08.061Z,10.27
2018-06-16T06:26:37.050Z,11.20
2018-06-16T06:29:06.105Z,13.83
2018-06-16T06:31:35.101Z,10.87
2018-06-16T06:34:04.084Z,10.97
2018-06-16T06:36:33.046Z,11.20
2018-06-16T06:39:02.062Z,11.17
2018-06-16T06:41:31.095Z,9.97
2018-06-16T06:44:00.110Z,10.70
2018-06-16T06:46:29.102Z,11.57
2018-06-16T06:48:58.672Z,10.13
2018-06-16T06:51:27.963Z,9.80
2018-06-16T06:53:57.012Z,10.40
2018-06-16T06:56:26.055Z,10.73
2018-06-16T06:58:55.723Z,11.30
2018-06-16T07:01:24.739Z,10.87
2018-06-16T07:03:53.697Z,11.93
2018-06-16T07:06:22.680Z,10.63
2018-06-16T07:08:51.686Z,9.30
2018-06-16T07:11:20.875Z,10.67
2018-06-16T07:13:49.886Z,10.63
2018-06-16T07:16:18.940Z,10.90
2018-06-16T07:18:47.977Z,11.03
2018-06-16T07:21:17.031Z,13.37
2018-06-16T07:23:46.101Z,10.63
2018-06-16T07:26:15.083Z,10.27
2018-06-16T07:28:44.079Z,10.47
2018-06-16T07:31:13.096Z,10.17
2018-06-16T07:33:42.116Z,10.47
2018-06-16T07:36:11.148Z,9.93
2018-06-16T07:38:40.078Z,10.70
2018-06-16T07:41:09.165Z,9.50
2018-06-16T07:43:38.129Z,8.73
2018-06-16T07:46:07.127Z,11.70
2018-06-16T07:48:36.142Z,8.80
2018-06-16T07:51:05.128Z,9.77
2018-06-16T07:53:34.285Z,9.50
2018-06-16T07:56:03.302Z,8.57
2018-06-16T07:58:32.489Z,8.87
2018-06-16T08:01:01.740Z,9.27
2018-06-16T08:03:32.197Z,8.87
2018-06-16T08:06:01.176Z,8.27
2018-06-16T08:08:30.214Z,9.53
2018-06-16T08:10:59.333Z,9.57
2018-06-16T08:13:28.307Z,8.37
2018-06-16T08:15:57.306Z,8.40
2018-06-16T08:18:26.314Z,8.47
2018-06-16T08:20:56.034Z,9.87
2018-06-16T08:23:25.130Z,6.73
2018-06-16T08:25:57.196Z,7.60
2018-06-16T08:28:26.179Z,8.30
2018-06-16T08:30:55.353Z,8.23
2018-06-16T08:33:24.339Z,7.67
2018-06-16T08:35:53.443Z,8.90
2018-06-16T08:38:22.563Z,7.63
2018-06-16T08:40:51.643Z,8.47
2018-06-16T08:43:20.975Z,9.45
2018-06-16T08:45:50.024Z,7.70
2018-06-16T08:48:19.065Z,8.78
2018-06-16T08:50:48.136Z,8.68
2018-06-16T08:53:17.261Z,8.15
2018-06-16T08:55:46.347Z,7.50
2018-06-16T08:58:15.284Z,7.15
2018-06-16T09:00:44.311Z,6.92
2018-06-16T09:03:13.445Z,6.05
2018-06-16T09:05:42.425Z,7.20
2018-06-16T09:08:11.392Z,7.58
2018-06-16T09:10:40.552Z,6.50
2018-06-16T09:13:09.519Z,7.45
2018-06-16T09:15:38.509Z,6.83
2018-06-16T09:18:09.096Z,7.12
2018-06-16T09:20:38.118Z,8.28
2018-06-16T09:23:07.079Z,6.47
2018-06-16T09:25:36.059Z,9.60
2018-06-16T09:28:05.106Z,5.47
2018-06-16T09:30:34.091Z,6.92
2018-06-16T09:33:03.079Z,6.62
2018-06-16T09:35:32.052Z,5.75
2018-06-16T09:38:01.073Z,6.05
2018-06-16T09:40:30.111Z,12.68
2018-06-16T09:42:59.098Z,5.87
2018-06-16T09:45:28.257Z,6.72
2018-06-16T09:47:57.390Z,5.37
2018-06-16T09:50:26.362Z,6.40
2018-06-16T09:52:56.307Z,5.67
2018-06-16T09:55:25.317Z,6.83
2018-06-16T09:57:57.726Z,7.17
2018-06-16T10:00:32.316Z,4.87
2018-06-16T10:03:01.314Z,5.75
2018-06-16T10:05:30.338Z,5.83
2018-06-16T10:07:59.590Z,5.67
2018-06-16T10:10:28.611Z,5.40
2018-06-16T10:12:57.608Z,5.03
2018-06-16T10:15:26.644Z,5.03
2018-06-16T10:17:55.621Z,5.00
2018-06-16T10:20:24.626Z,5.35
2018-06-16T10:22:53.704Z,6.22
2018-06-16T10:25:23.926Z,15.32
2018-06-16T10:27:52.984Z,5.10
2018-06-16T10:30:22.052Z,4.85
2018-06-16T10:32:51.036Z,4.95
2018-06-16T10:35:20.106Z,5.17
2018-06-16T10:37:49.079Z,5.30
2018-06-16T10:40:18.289Z,5.22
2018-06-16T10:42:47.328Z,5.05
2018-06-16T10:45:16.323Z,4.72
2018-06-16T10:47:45.327Z,4.80
2018-06-16T10:50:14.401Z,4.87
2018-06-16T10:52:43.374Z,4.53
2018-06-16T10:55:12.333Z,4.37
2018-06-16T10:57:41.354Z,6.60
2018-06-16T11:00:10.333Z,4.40
2018-06-16T11:02:39.351Z,6.67
2018-06-16T11:05:08.507Z,4.65
2018-06-16T11:07:37.488Z,4.85
2018-06-16T11:10:06.748Z,4.50
2018-06-16T11:12:35.781Z,3.50
2018-06-16T11:15:04.717Z,4.70
2018-06-16T11:17:33.706Z,4.60
2018-06-16T11:20:02.665Z,4.08
2018-06-16T11:22:31.670Z,6.03
2018-06-16T11:25:00.649Z,5.22
2018-06-16T11:27:29.625Z,4.70
2018-06-16T11:29:58.685Z,4.40
2018-06-16T11:32:27.661Z,4.50
2018-06-16T11:34:56.633Z,6.72
2018-06-16T11:37:27.843Z,4.03
2018-06-16T11:39:57.297Z,4.85
2018-06-16T11:42:26.260Z,4.42
2018-06-16T11:44:55.213Z,5.00
2018-06-16T11:47:24.203Z,4.30
2018-06-16T11:49:53.376Z,4.85
2018-06-16T11:52:22.506Z,4.20
2018-06-16T11:54:51.669Z,4.87
2018-06-16T11:57:20.617Z,5.53
2018-06-16T11:59:50.093Z,4.10
2018-06-16T12:02:19.175Z,5.20
2018-06-16T12:04:48.183Z,4.65
2018-06-16T12:07:17.417Z,5.53
2018-06-16T12:09:46.419Z,5.58
2018-06-16T12:12:15.498Z,5.70
2018-06-16T12:14:44.535Z,4.60
2018-06-16T12:17:13.706Z,4.00
2018-06-16T12:19:42.676Z,4.40
2018-06-16T12:22:11.909Z,4.85
2018-06-16T12:24:40.967Z,5.12
2018-06-16T12:27:09.922Z,4.25
2018-06-16T12:29:38.943Z,6.12
2018-06-16T12:32:07.988Z,5.00
2018-06-16T12:34:37.000Z,4.83
2018-06-16T12:37:05.993Z,4.50
2018-06-16T12:39:35.117Z,5.10
2018-06-16T12:42:04.233Z,5.77
2018-06-16T12:44:33.212Z,5.17
2018-06-16T12:47:02.173Z,5.40
2018-06-16T12:49:31.179Z,6.30
2018-06-16T12:52:00.189Z,4.70
2018-06-16T12:54:29.655Z,8.10
2018-06-16T12:56:58.809Z,39.13
2018-06-16T12:59:27.801Z,11.17
2018-06-16T13:01:56.888Z,14.27
2018-06-16T13:04:25.856Z,4.80
2018-06-16T13:06:54.876Z,4.77
2018-06-16T13:09:23.857Z,4.90
2018-06-16T13:11:52.890Z,8.30
2018-06-16T13:14:21.887Z,6.50
2018-06-16T13:16:50.858Z,5.70
2018-06-16T13:19:19.904Z,5.63
2018-06-16T13:21:48.954Z,5.67
2018-06-16T13:24:17.922Z,5.67
2018-06-16T13:26:46.941Z,6.27
2018-06-16T13:29:15.996Z,5.37
2018-06-16T13:31:44.974Z,6.50
2018-06-16T13:34:13.987Z,7.30
2018-06-16T13:36:42.933Z,6.10
2018-06-16T13:39:12.549Z,5.37
2018-06-16T13:41:42.305Z,10.10
2018-06-16T13:44:11.349Z,5.87
2018-06-16T13:46:40.367Z,6.03
2018-06-16T13:49:09.485Z,4.97
2018-06-16T13:51:38.498Z,5.65
2018-06-16T13:54:07.590Z,6.03
2018-06-16T13:56:36.677Z,5.78
2018-06-16T13:59:05.804Z,7.50
2018-06-16T14:01:34.889Z,6.10
2018-06-16T14:04:03.971Z,6.20
2018-06-16T14:06:33.027Z,6.25
2018-06-16T14:09:02.031Z,6.70
2018-06-16T14:11:30.973Z,5.65
2018-06-16T14:14:03.006Z,5.62
2018-06-16T14:16:32.000Z,5.65
2018-06-16T14:19:00.954Z,5.95
2018-06-16T14:21:29.985Z,5.55
2018-06-16T14:23:58.967Z,5.50
2018-06-16T14:26:28.019Z,6.00
2018-06-16T14:28:56.967Z,6.13
2018-06-16T14:31:26.193Z,5.37
2018-06-16T14:33:55.228Z,6.00
2018-06-16T14:36:24.815Z,5.97
2018-06-16T14:38:54.138Z,6.13
2018-06-16T14:41:23.380Z,4.67
2018-06-16T14:43:52.699Z,5.70
2018-06-16T14:46:21.697Z,5.50
2018-06-16T14:48:50.701Z,5.60
2018-06-16T14:51:19.678Z,5.50
2018-06-16T14:53:48.687Z,5.07
2018-06-16T14:56:17.772Z,9.57
2018-06-16T14:58:46.740Z,5.80
2018-06-16T15:01:15.934Z,5.60
2018-06-16T15:03:44.912Z,7.10
2018-06-16T15:06:13.908Z,5.17
2018-06-16T15:08:42.933Z,5.70
2018-06-16T15:11:12.030Z,7.73
2018-06-16T15:13:41.001Z,5.70
2018-06-16T15:16:10.086Z,5.50
2018-06-16T15:18:39.033Z,5.27
2018-06-16T15:21:08.182Z,5.50
2018-06-16T15:23:37.206Z,5.20
2018-06-16T15:26:06.205Z,5.53
2018-06-16T15:28:35.215Z,4.93
2018-06-16T15:31:04.335Z,6.57
2018-06-16T15:33:33.334Z,5.67
2018-06-16T15:36:02.403Z,5.93
2018-06-16T15:38:31.630Z,5.70
2018-06-16T15:41:02.240Z,6.00
2018-06-16T15:43:31.362Z,7.03
2018-06-16T15:46:00.354Z,5.70
2018-06-16T15:48:29.337Z,5.20
2018-06-16T15:50:58.363Z,5.03
2018-06-16T15:53:27.791Z,5.70
2018-06-16T15:55:56.819Z,6.20
2018-06-16T15:58:25.901Z,4.73
2018-06-16T16:00:55.139Z,6.23
2018-06-16T16:03:24.107Z,6.80
2018-06-16T16:05:53.074Z,5.80
2018-06-16T16:08:22.096Z,6.13
2018-06-16T16:10:51.208Z,8.00
2018-06-16T16:13:20.210Z,5.50
2018-06-16T16:15:49.418Z,5.90
2018-06-16T16:18:18.435Z,6.73
2018-06-16T16:20:47.462Z,5.20
2018-06-16T16:23:16.445Z,6.50
2018-06-16T16:25:45.518Z,5.73
2018-06-16T16:28:14.494Z,6.40
2018-06-16T16:30:43.591Z,5.67
2018-06-16T16:33:12.570Z,5.30
2018-06-16T16:35:41.590Z,3.77
2018-06-16T16:38:10.580Z,5.57
2018-06-16T16:40:39.584Z,4.77
2018-06-16T16:43:08.562Z,5.00
2018-06-16T16:45:37.621Z,10.50
2018-06-16T16:48:06.824Z,4.57
2018-06-16T16:50:36.065Z,6.63
2018-06-16T16:53:05.058Z,5.20
2018-06-16T16:55:34.316Z,5.50
2018-06-16T16:58:03.301Z,5.17
2018-06-16T17:00:32.342Z,5.73
2018-06-16T17:03:01.533Z,5.47
2018-06-16T17:05:30.542Z,5.77
2018-06-16T17:07:59.588Z,4.97
2018-06-16T17:10:28.655Z,6.20
2018-06-16T17:12:57.678Z,9.03
2018-06-16T17:15:26.641Z,9.87
2018-06-16T17:17:55.697Z,8.83
2018-06-16T17:20:24.773Z,7.70
2018-06-16T17:22:53.773Z,6.03
2018-06-16T17:25:22.758Z,7.07
2018-06-16T17:27:51.757Z,11.07
2018-06-16T17:30:20.748Z,15.77
2018-06-16T17:32:49.730Z,10.93
2018-06-16T17:35:18.734Z,8.53
2018-06-16T17:37:47.837Z,9.30
2018-06-16T17:40:16.836Z,16.20
2018-06-16T17:42:45.864Z,14.43
2018-06-16T17:45:14.862Z,9.83
2018-06-16T17:47:43.846Z,7.80
2018-06-16T17:50:12.911Z,7.17
2018-06-16T17:52:41.915Z,7.13
2018-06-16T17:55:11.015Z,6.10
2018-06-16T17:57:40.021Z,7.30
2018-06-16T18:00:09.010Z,15.13
2018-06-16T18:02:37.987Z,8.27
2018-06-16T18:05:06.967Z,7.33
2018-06-16T18:07:35.926Z,7.13
2018-06-16T18:10:05.470Z,8.77
2018-06-16T18:12:34.465Z,14.50
2018-06-16T18:15:03.525Z,11.10
2018-06-16T18:17:32.498Z,22.17
2018-06-16T18:20:01.513Z,36.00
2018-06-16T18:22:30.548Z,90.57
2018-06-16T18:24:59.540Z,29.13
2018-06-16T18:27:28.620Z,18.23
2018-06-16T18:29:57.626Z,10.47
2018-06-16T18:32:26.628Z,8.57
2018-06-16T18:34:55.734Z,7.00
2018-06-16T18:37:24.730Z,7.77
2018-06-16T18:39:53.798Z,7.73
2018-06-16T18:42:22.783Z,13.57
2018-06-16T18:44:51.890Z,8.07
2018-06-16T18:47:21.125Z,9.07
2018-06-16T18:49:50.543Z,8.90
2018-06-16T18:52:19.480Z,7.07
2018-06-16T18:54:48.480Z,7.77
2018-06-16T18:57:17.578Z,7.80
2018-06-16T18:59:46.562Z,7.90
2018-06-16T19:02:15.543Z,25.57
2018-06-16T19:04:44.557Z,16.83
2018-06-16T19:07:13.591Z,35.43
2018-06-16T19:09:42.539Z,26.00
2018-06-16T19:12:11.548Z,31.70
2018-06-16T19:14:40.543Z,18.60
2018-06-16T19:17:09.554Z,25.60
2018-06-16T19:19:38.642Z,11.63
2018-06-16T19:22:07.647Z,13.93
2018-06-16T19:24:36.622Z,17.30
2018-06-16T19:27:05.677Z,12.43
2018-06-16T19:29:34.689Z,12.53
2018-06-16T19:32:03.676Z,16.40
2018-06-16T19:34:32.835Z,15.50
2018-06-16T19:37:02.199Z,10.90
2018-06-16T19:39:31.167Z,12.07
2018-06-16T19:42:00.139Z,20.80
2018-06-16T19:44:29.330Z,29.47
2018-06-16T19:46:58.308Z,56.23
2018-06-16T19:49:27.384Z,55.10
2018-06-16T19:51:56.371Z,70.93
2018-06-16T19:54:25.357Z,91.80
2018-06-16T19:56:54.470Z,72.13
2018-06-16T19:59:23.524Z,61.00
2018-06-16T20:01:52.924Z,42.93
2018-06-16T20:04:22.068Z,41.60
2018-06-16T20:06:52.226Z,22.40
2018-06-16T20:09:20.377Z,56.40
2018-06-16T20:11:49.177Z,36.33
2018-06-16T20:14:18.469Z,34.80
2018-06-16T20:16:47.861Z,36.33
2018-06-16T20:19:16.913Z,29.50
2018-06-16T20:21:45.905Z,28.10
2018-06-16T20:24:15.429Z,25.37
2018-06-16T20:26:44.491Z,19.67
2018-06-16T20:29:13.506Z,18.00
2018-06-16T20:31:42.678Z,97.27
2018-06-16T20:34:11.736Z,141.53
2018-06-16T20:36:40.718Z,27.07
2018-06-16T20:39:09.758Z,20.03
2018-06-16T20:41:38.731Z,16.67
2018-06-16T20:44:07.902Z,15.93
2018-06-16T20:46:37.019Z,29.30
2018-06-16T20:49:06.059Z,39.30
2018-06-16T20:51:35.144Z,24.20
2018-06-16T20:54:04.127Z,71.90
2018-06-16T20:56:33.167Z,35.50
2018-06-16T20:59:02.221Z,24.93
2018-06-16T21:01:31.234Z,18.50
2018-06-16T21:04:00.287Z,15.10
2018-06-16T21:06:29.302Z,17.73
2018-06-16T21:08:58.297Z,13.23
2018-06-16T21:11:27.403Z,12.93
2018-06-16T21:13:56.411Z,13.93
2018-06-16T21:16:25.450Z,12.30
2018-06-16T21:18:54.440Z,12.07
2018-06-16T21:21:23.754Z,15.27
2018-06-16T21:23:52.735Z,14.50
2018-06-16T21:26:21.699Z,12.43
2018-06-16T21:28:50.740Z,18.47
2018-06-16T21:31:20.072Z,15.40
2018-06-16T21:33:49.254Z,17.17
2018-06-16T21:36:18.234Z,18.67
2018-06-16T21:38:47.216Z,22.13
2018-06-16T21:41:16.197Z,14.93
2018-06-16T21:43:45.356Z,15.03
2018-06-16T21:46:14.400Z,16.33
2018-06-16T21:48:43.549Z,16.20
2018-06-16T21:51:12.605Z,13.57
2018-06-16T21:53:41.623Z,13.70
2018-06-16T21:56:10.662Z,13.30
2018-06-16T21:58:40.058Z,13.03
2018-06-16T22:01:09.042Z,13.87
2018-06-16T22:03:38.021Z,12.30
2018-06-16T22:06:07.042Z,13.97
2018-06-16T22:08:36.083Z,14.40
2018-06-16T22:11:05.119Z,13.50
2018-06-16T22:13:34.198Z,13.23
2018-06-16T22:16:03.228Z,13.87
2018-06-16T22:18:32.306Z,14.33
2018-06-16T22:21:01.455Z,13.73
2018-06-16T22:23:30.673Z,14.63
2018-06-16T22:25:59.946Z,14.83
2018-06-16T22:28:29.033Z,13.07
2018-06-16T22:30:58.041Z,12.97
2018-06-16T22:33:27.058Z,13.27
2018-06-16T22:35:56.077Z,12.57
2018-06-16T22:38:25.053Z,13.50
2018-06-16T22:40:54.651Z,13.27
2018-06-16T22:43:23.631Z,13.37
2018-06-16T22:45:52.680Z,13.90
2018-06-16T22:48:21.682Z,13.07
2018-06-16T22:50:50.651Z,13.90
2018-06-16T22:53:19.836Z,12.60
2018-06-16T22:55:48.840Z,11.70
2018-06-16T22:58:17.834Z,14.93
2018-06-16T23:00:46.929Z,13.77
2018-06-16T23:03:15.919Z,15.67
2018-06-16T23:05:44.960Z,14.60
2018-06-16T23:08:13.950Z,12.70
2018-06-16T23:10:47.333Z,13.60
2018-06-16T23:13:16.298Z,15.80
2018-06-16T23:15:45.391Z,14.77
2018-06-16T23:18:14.420Z,16.33
2018-06-16T23:20:43.535Z,13.70
2018-06-16T23:23:12.680Z,21.20
2018-06-16T23:25:41.909Z,19.93
2018-06-16T23:28:10.906Z,17.20
2018-06-16T23:30:39.881Z,15.60
2018-06-16T23:33:08.903Z,16.80
2018-06-16T23:35:38.080Z,15.03
2018-06-16T23:38:07.368Z,14.53
2018-06-16T23:40:36.374Z,15.83
2018-06-16T23:43:05.423Z,16.97
2018-06-16T23:45:34.685Z,14.57
2018-06-16T23:48:04.135Z,14.93
2018-06-16T23:50:33.282Z,15.50
2018-06-16T23:53:02.272Z,15.13
2018-06-16T23:55:31.345Z,16.23
2018-06-16T23:58:00.415Z,15.23
